createdAt,value
2018-01-16T00:00:55.477Z,0.00
2018-01-16T00:01:55.506Z,0.00
2018-01-16T00:02:55.542Z,0.00
2018-01-16T00:03:55.569Z,0.00
2018-01-16T00:04:55.597Z,0.00
2018-01-16T00:05:55.627Z,0.00
2018-01-16T00:06:55.670Z,0.00
2018-01-16T00:07:55.687Z,0.00
2018-01-16T00:08:55.717Z,0.00
2018-01-16T00:09:55.747Z,0.00
2018-01-16T00:10:55.777Z,0.00
2018-01-16T00:11:55.807Z,0.00
2018-01-16T00:12:55.837Z,0.00
2018-01-16T00:13:55.869Z,0.00
2018-01-16T00:14:55.928Z,0.00
2018-01-16T00:15:55.926Z,0.00
2018-01-16T00:16:55.956Z,0.00
2018-01-16T00:17:55.988Z,0.00
2018-01-16T00:18:56.016Z,0.00
2018-01-16T00:19:56.047Z,0.00
2018-01-16T00:20:56.077Z,0.00
2018-01-16T00:21:56.181Z,0.00
2018-01-16T00:22:56.140Z,0.00
2018-01-16T00:23:56.175Z,0.00
2018-01-16T00:24:56.197Z,0.00
2018-01-16T00:25:56.230Z,0.00
2018-01-16T00:26:56.257Z,0.00
2018-01-16T00:27:56.289Z,0.00
2018-01-16T00:28:56.317Z,0.00
2018-01-16T00:29:56.350Z,0.00
2018-01-16T00:30:56.379Z,0.00
2018-01-16T00:31:56.407Z,0.00
2018-01-16T00:32:56.446Z,0.00
2018-01-16T00:33:56.471Z,0.00
2018-01-16T00:34:56.510Z,0.00
2018-01-16T00:35:56.528Z,0.00
2018-01-16T00:36:56.560Z,0.00
2018-01-16T00:37:56.589Z,0.00
2018-01-16T00:38:56.643Z,0.00
2018-01-16T00:39:56.651Z,0.00
2018-01-16T00:40:56.682Z,0.00
2018-01-16T00:41:56.713Z,0.00
2018-01-16T00:42:56.741Z,0.00
2018-01-16T00:43:56.770Z,0.00
2018-01-16T00:44:56.800Z,0.00
2018-01-16T00:45:56.831Z,0.00
2018-01-16T00:46:56.862Z,0.00
2018-01-16T00:47:56.894Z,0.00
2018-01-16T00:48:56.926Z,0.00
2018-01-16T00:49:56.968Z,0.00
2018-01-16T00:50:56.982Z,0.00
2018-01-16T00:51:57.017Z,0.00
2018-01-16T00:52:57.043Z,0.00
2018-01-16T00:53:57.087Z,0.00
2018-01-16T00:54:57.108Z,0.00
2018-01-16T00:55:57.455Z,0.00
2018-01-16T00:56:57.167Z,0.00
2018-01-16T00:57:57.197Z,0.00
2018-01-16T00:58:57.228Z,0.00
2018-01-16T00:59:57.258Z,0.00
2018-01-16T01:00:57.288Z,0.00
2018-01-16T01:01:57.329Z,0.00
2018-01-16T01:02:57.348Z,0.00
2018-01-16T01:03:57.381Z,0.00
2018-01-16T01:04:57.408Z,0.00
2018-01-16T01:05:57.439Z,0.00
2018-01-16T01:06:57.471Z,0.00
2018-01-16T01:07:57.507Z,0.00
2018-01-16T01:08:57.530Z,0.00
2018-01-16T01:09:57.561Z,0.00
2018-01-16T01:10:57.601Z,0.00
2018-01-16T01:11:57.626Z,0.00
2018-01-16T01:12:57.654Z,0.00
2018-01-16T01:13:57.683Z,0.00
2018-01-16T01:14:57.821Z,0.00
2018-01-16T01:15:57.743Z,0.00
2018-01-16T01:16:57.783Z,0.00
2018-01-16T01:17:57.806Z,0.00
2018-01-16T01:18:57.836Z,0.00
2018-01-16T01:19:57.868Z,0.00
2018-01-16T01:20:57.900Z,0.00
2018-01-16T01:21:57.990Z,0.00
2018-01-16T01:22:57.962Z,0.00
2018-01-16T01:23:57.991Z,0.00
2018-01-16T01:24:58.020Z,0.00
2018-01-16T01:25:58.050Z,0.00
2018-01-16T01:26:58.081Z,0.00
2018-01-16T01:27:58.111Z,0.00
2018-01-16T01:28:58.142Z,0.00
2018-01-16T01:29:58.174Z,0.00
2018-01-16T01:30:58.222Z,0.00
2018-01-16T01:31:58.241Z,0.00
2018-01-16T01:32:58.270Z,0.00
2018-01-16T01:33:58.296Z,0.00
2018-01-16T01:34:58.326Z,0.00
2018-01-16T01:35:58.357Z,0.00
2018-01-16T01:36:58.392Z,0.00
2018-01-16T01:37:58.422Z,0.00
2018-01-16T01:38:58.532Z,0.00
2018-01-16T01:39:58.480Z,0.00
2018-01-16T01:40:58.534Z,0.00
2018-01-16T01:41:58.543Z,0.00
2018-01-16T01:42:58.585Z,0.00
2018-01-16T01:43:58.606Z,0.00
2018-01-16T01:44:58.697Z,0.00
2018-01-16T01:45:58.669Z,0.00
2018-01-16T01:46:58.699Z,0.00
2018-01-16T01:47:58.727Z,0.00
2018-01-16T01:48:58.760Z,0.00
2018-01-16T01:49:58.795Z,0.00
2018-01-16T01:50:58.824Z,0.00
2018-01-16T01:51:58.855Z,0.00
2018-01-16T01:52:58.885Z,0.00
2018-01-16T01:53:58.916Z,0.00
2018-01-16T01:54:58.946Z,0.00
2018-01-16T01:55:58.977Z,0.00
2018-01-16T01:56:59.008Z,0.00
2018-01-16T01:57:59.160Z,0.00
2018-01-16T01:58:59.070Z,0.00
2018-01-16T01:59:59.104Z,0.00
2018-01-16T02:00:59.134Z,0.00
2018-01-16T02:01:59.166Z,0.00
2018-01-16T02:02:59.197Z,0.00
2018-01-16T02:03:59.225Z,0.00
2018-01-16T02:04:59.254Z,0.00
2018-01-16T02:05:59.289Z,0.00
2018-01-16T02:06:59.320Z,0.00
2018-01-16T02:07:59.349Z,0.00
2018-01-16T02:08:59.383Z,0.00
2018-01-16T02:09:59.410Z,0.00
2018-01-16T02:10:59.442Z,0.00
2018-01-16T02:11:59.484Z,0.00
2018-01-16T02:12:59.504Z,0.00
2018-01-16T02:13:59.536Z,0.00
2018-01-16T02:14:59.579Z,0.00
2018-01-16T02:15:59.596Z,0.00
2018-01-16T02:16:59.628Z,0.00
2018-01-16T02:17:59.662Z,0.00
2018-01-16T02:18:59.693Z,0.00
2018-01-16T02:19:59.723Z,0.00
2018-01-16T02:20:59.757Z,0.00
2018-01-16T02:21:59.823Z,0.00
2018-01-16T02:22:59.818Z,0.00
2018-01-16T02:23:59.853Z,0.00
2018-01-16T02:24:59.879Z,0.00
2018-01-16T02:25:59.928Z,0.00
2018-01-16T02:26:59.943Z,0.00
2018-01-16T02:27:59.973Z,0.00
2018-01-16T02:29:00.005Z,0.00
2018-01-16T02:30:00.045Z,0.00
2018-01-16T02:31:00.068Z,0.00
2018-01-16T02:32:00.099Z,0.00
2018-01-16T02:33:00.147Z,0.00
2018-01-16T02:34:00.160Z,0.00
2018-01-16T02:35:00.193Z,0.00
2018-01-16T02:36:00.223Z,0.00
2018-01-16T02:37:00.254Z,0.00
2018-01-16T02:38:00.289Z,0.00
2018-01-16T02:39:00.322Z,0.00
2018-01-16T02:40:00.350Z,0.00
2018-01-16T02:41:00.380Z,0.00
2018-01-16T02:42:00.409Z,0.00
2018-01-16T02:43:00.441Z,0.00
2018-01-16T02:44:00.472Z,0.00
2018-01-16T02:45:00.504Z,0.00
2018-01-16T02:46:00.608Z,0.00
2018-01-16T02:47:00.570Z,0.00
2018-01-16T02:48:00.604Z,0.00
2018-01-16T02:49:00.629Z,0.00
2018-01-16T02:50:00.669Z,0.00
2018-01-16T02:51:00.692Z,0.00
2018-01-16T02:52:00.722Z,0.00
2018-01-16T02:53:00.753Z,0.00
2018-01-16T02:54:00.785Z,0.00
2018-01-16T02:55:00.815Z,0.00
2018-01-16T02:56:00.851Z,0.00
2018-01-16T02:57:00.881Z,0.00
2018-01-16T02:58:00.915Z,0.00
2018-01-16T02:59:00.942Z,0.00
2018-01-16T03:00:00.974Z,0.00
2018-01-16T03:01:01.005Z,0.00
2018-01-16T03:02:01.036Z,0.00
2018-01-16T03:03:01.072Z,0.00
2018-01-16T03:04:01.103Z,0.00
2018-01-16T03:05:01.257Z,0.00
2018-01-16T03:06:01.164Z,0.00
2018-01-16T03:07:01.199Z,0.00
2018-01-16T03:08:01.225Z,0.00
2018-01-16T03:09:01.257Z,0.00
2018-01-16T03:10:01.292Z,0.00
2018-01-16T03:11:01.323Z,0.00
2018-01-16T03:12:01.354Z,0.00
2018-01-16T03:13:01.382Z,0.00
2018-01-16T03:14:01.413Z,0.00
2018-01-16T03:15:01.446Z,0.00
2018-01-16T03:16:01.476Z,0.00
2018-01-16T03:17:01.508Z,0.00
2018-01-16T03:18:01.538Z,0.00
2018-01-16T03:19:01.574Z,0.00
2018-01-16T03:20:01.604Z,0.00
2018-01-16T03:21:01.633Z,0.00
2018-01-16T03:22:01.666Z,0.00
2018-01-16T03:23:01.696Z,0.00
2018-01-16T03:24:01.726Z,0.00
2018-01-16T03:25:01.756Z,0.00
2018-01-16T03:26:01.791Z,0.00
2018-01-16T03:27:01.839Z,0.00
2018-01-16T03:28:01.854Z,0.00
2018-01-16T03:29:02.210Z,0.00
2018-01-16T03:30:01.914Z,0.00
2018-01-16T03:31:01.949Z,0.00
2018-01-16T03:32:01.977Z,0.00
2018-01-16T03:33:02.022Z,0.00
2018-01-16T03:34:02.040Z,0.00
2018-01-16T03:35:02.074Z,0.00
2018-01-16T03:36:02.164Z,0.00
2018-01-16T03:37:02.136Z,0.00
2018-01-16T03:38:02.167Z,0.00
2018-01-16T03:39:02.199Z,0.00
2018-01-16T03:40:02.229Z,0.00
2018-01-16T03:41:02.261Z,0.00
2018-01-16T03:42:02.292Z,0.00
2018-01-16T03:43:02.326Z,0.00
2018-01-16T03:44:02.356Z,0.00
2018-01-16T03:45:02.418Z,0.00
2018-01-16T03:46:02.425Z,0.00
2018-01-16T03:47:02.449Z,0.00
2018-01-16T03:48:02.550Z,0.00
2018-01-16T03:49:02.510Z,0.00
2018-01-16T03:50:02.543Z,0.00
2018-01-16T03:51:02.573Z,0.00
2018-01-16T03:52:02.607Z,0.00
2018-01-16T03:53:02.638Z,0.00
2018-01-16T03:54:02.668Z,0.00
2018-01-16T03:55:02.698Z,0.00
2018-01-16T03:56:02.727Z,0.00
2018-01-16T03:57:02.757Z,0.00
2018-01-16T03:58:02.790Z,0.00
2018-01-16T03:59:02.820Z,0.00
2018-01-16T04:00:02.891Z,0.00
2018-01-16T04:01:02.883Z,0.00
2018-01-16T04:02:02.913Z,0.00
2018-01-16T04:03:02.948Z,0.00
2018-01-16T04:04:02.975Z,0.00
2018-01-16T04:05:03.011Z,0.00
2018-01-16T04:06:03.039Z,0.00
2018-01-16T04:07:03.069Z,0.00
2018-01-16T04:08:03.099Z,0.00
2018-01-16T04:09:03.135Z,0.00
2018-01-16T04:10:03.162Z,0.00
2018-01-16T04:11:03.196Z,0.00
2018-01-16T04:12:03.226Z,0.00
2018-01-16T04:13:03.260Z,0.00
2018-01-16T04:14:03.291Z,0.00
2018-01-16T04:15:03.320Z,0.00
2018-01-16T04:16:03.366Z,0.00
2018-01-16T04:17:03.382Z,0.00
2018-01-16T04:18:03.411Z,0.00
2018-01-16T04:19:03.445Z,0.00
2018-01-16T04:20:03.473Z,0.00
2018-01-16T04:21:03.504Z,0.00
2018-01-16T04:22:03.536Z,0.00
2018-01-16T04:23:03.573Z,0.00
2018-01-16T04:24:03.596Z,0.00
2018-01-16T04:25:03.634Z,0.00
2018-01-16T04:26:03.661Z,0.00
2018-01-16T04:27:03.692Z,0.00
2018-01-16T04:28:03.722Z,0.00
2018-01-16T04:29:03.774Z,0.00
2018-01-16T04:30:03.784Z,0.00
2018-01-16T04:31:03.817Z,0.00
2018-01-16T04:32:03.845Z,0.00
2018-01-16T04:33:04.156Z,0.00
2018-01-16T04:34:03.906Z,0.00
2018-01-16T04:35:03.942Z,0.00
2018-01-16T04:36:03.972Z,0.00
2018-01-16T04:37:04.002Z,0.00
2018-01-16T04:38:04.044Z,0.00
2018-01-16T04:39:04.062Z,0.00
2018-01-16T04:40:04.096Z,0.00
2018-01-16T04:41:04.125Z,0.00
2018-01-16T04:42:04.155Z,0.00
2018-01-16T04:43:04.187Z,0.00
2018-01-16T04:44:04.226Z,0.00
2018-01-16T04:45:04.249Z,0.00
2018-01-16T04:46:04.283Z,0.00
2018-01-16T04:47:04.311Z,0.00
2018-01-16T04:48:04.393Z,0.00
2018-01-16T04:49:04.374Z,0.00
2018-01-16T04:50:04.404Z,0.00
2018-01-16T04:51:04.442Z,0.00
2018-01-16T04:52:04.468Z,0.00
2018-01-16T04:53:04.497Z,0.00
2018-01-16T04:54:04.527Z,0.00
2018-01-16T04:55:04.562Z,0.00
2018-01-16T04:56:04.648Z,0.00
2018-01-16T04:57:04.621Z,0.00
2018-01-16T04:58:04.654Z,0.00
2018-01-16T04:59:04.684Z,0.00
2018-01-16T05:00:04.712Z,0.00
2018-01-16T05:01:04.746Z,0.00
2018-01-16T05:02:04.776Z,0.00
2018-01-16T05:03:04.811Z,0.00
2018-01-16T05:04:04.843Z,0.00
2018-01-16T05:05:04.884Z,0.00
2018-01-16T05:06:04.898Z,0.00
2018-01-16T05:07:04.930Z,0.00
2018-01-16T05:08:04.959Z,0.00
2018-01-16T05:09:04.989Z,0.00
2018-01-16T05:10:05.022Z,0.00
2018-01-16T05:11:05.051Z,0.00
2018-01-16T05:12:05.135Z,0.00
2018-01-16T05:13:05.116Z,0.00
2018-01-16T05:14:05.147Z,0.00
2018-01-16T05:15:05.177Z,0.00
2018-01-16T05:16:05.206Z,0.00
2018-01-16T05:17:05.236Z,0.00
2018-01-16T05:18:05.267Z,0.00
2018-01-16T05:19:05.421Z,0.00
2018-01-16T05:20:05.329Z,0.00
2018-01-16T05:21:05.356Z,0.00
2018-01-16T05:22:05.389Z,0.00
2018-01-16T05:23:05.920Z,0.00
2018-01-16T05:24:05.449Z,0.00
2018-01-16T05:25:05.482Z,0.00
2018-01-16T05:26:05.513Z,0.00
2018-01-16T05:27:05.548Z,0.00
2018-01-16T05:28:05.576Z,0.00
2018-01-16T05:29:05.607Z,0.00
2018-01-16T05:30:05.640Z,0.00
2018-01-16T05:31:05.768Z,0.00
2018-01-16T05:32:05.699Z,0.00
2018-01-16T05:33:05.733Z,0.00
2018-01-16T05:34:05.762Z,0.00
2018-01-16T05:35:05.791Z,0.00
2018-01-16T05:36:05.818Z,0.00
2018-01-16T05:37:05.852Z,0.00
2018-01-16T05:38:05.975Z,0.00
2018-01-16T05:39:05.914Z,0.00
2018-01-16T05:40:05.946Z,0.00
2018-01-16T05:41:05.975Z,0.00
2018-01-16T05:42:06.005Z,0.00
2018-01-16T05:43:06.040Z,0.00
2018-01-16T05:44:06.080Z,0.00
2018-01-16T05:45:06.101Z,0.00
2018-01-16T05:46:06.129Z,0.00
2018-01-16T05:47:06.160Z,0.00
2018-01-16T05:48:06.193Z,0.00
2018-01-16T05:49:06.220Z,0.00
2018-01-16T05:50:06.250Z,0.00
2018-01-16T05:51:06.282Z,0.00
2018-01-16T05:52:06.312Z,0.00
2018-01-16T05:53:06.343Z,0.00
2018-01-16T05:54:06.377Z,0.00
2018-01-16T05:55:06.513Z,0.00
2018-01-16T05:56:06.436Z,0.00
2018-01-16T05:57:06.466Z,0.00
2018-01-16T05:58:06.514Z,0.00
2018-01-16T05:59:06.530Z,0.00
2018-01-16T06:00:06.563Z,0.00
2018-01-16T06:01:06.590Z,0.00
2018-01-16T06:02:06.622Z,0.00
2018-01-16T06:03:06.653Z,0.00
2018-01-16T06:04:06.684Z,0.00
2018-01-16T06:05:06.714Z,0.00
2018-01-16T06:06:06.744Z,0.00
2018-01-16T06:07:06.777Z,0.00
2018-01-16T06:08:06.807Z,0.00
2018-01-16T06:09:06.837Z,0.00
2018-01-16T06:10:06.868Z,0.00
2018-01-16T06:11:06.903Z,0.00
2018-01-16T06:12:06.941Z,0.00
2018-01-16T06:13:06.962Z,0.00
2018-01-16T06:14:06.993Z,0.00
2018-01-16T06:15:07.024Z,0.00
2018-01-16T06:16:07.053Z,0.00
2018-01-16T06:17:07.086Z,0.00
2018-01-16T06:18:07.116Z,0.00
2018-01-16T06:19:07.219Z,0.00
2018-01-16T06:20:07.179Z,0.00
2018-01-16T06:21:07.208Z,0.00
2018-01-16T06:22:07.242Z,0.00
2018-01-16T06:23:07.273Z,0.00
2018-01-16T06:24:07.305Z,0.00
2018-01-16T06:25:07.335Z,0.00
2018-01-16T06:26:07.365Z,0.00
2018-01-16T06:27:07.395Z,0.00
2018-01-16T06:28:07.424Z,0.00
2018-01-16T06:29:07.458Z,0.00
2018-01-16T06:30:07.489Z,0.00
2018-01-16T06:31:07.525Z,0.00
2018-01-16T06:32:07.549Z,0.00
2018-01-16T06:33:07.580Z,0.00
2018-01-16T06:34:07.616Z,0.00
2018-01-16T06:35:07.647Z,0.00
2018-01-16T06:36:07.684Z,0.00
2018-01-16T06:37:07.704Z,0.00
2018-01-16T06:38:08.097Z,0.00
2018-01-16T06:39:07.769Z,0.00
2018-01-16T06:40:07.797Z,0.00
2018-01-16T06:41:07.828Z,0.00
2018-01-16T06:42:07.861Z,0.00
2018-01-16T06:43:07.891Z,0.00
2018-01-16T06:44:07.921Z,0.00
2018-01-16T06:45:07.952Z,4.00
2018-01-16T06:46:07.981Z,0.00
2018-01-16T06:47:08.016Z,0.00
2018-01-16T06:48:08.046Z,4.00
2018-01-16T06:49:08.075Z,4.00
2018-01-16T06:50:08.119Z,4.00
2018-01-16T06:51:08.137Z,8.00
2018-01-16T06:52:08.175Z,8.00
2018-01-16T06:53:08.200Z,8.00
2018-01-16T06:54:08.235Z,12.00
2018-01-16T06:55:08.266Z,12.00
2018-01-16T06:56:08.293Z,12.00
2018-01-16T06:57:08.328Z,16.00
2018-01-16T06:58:08.353Z,20.00
2018-01-16T06:59:08.389Z,24.00
2018-01-16T07:00:08.431Z,32.00
2018-01-16T07:01:08.448Z,44.00
2018-01-16T07:02:08.851Z,52.00
2018-01-16T07:03:08.513Z,60.00
2018-01-16T07:04:08.539Z,64.00
2018-01-16T07:05:08.570Z,76.00
2018-01-16T07:06:08.599Z,84.00
2018-01-16T07:07:08.632Z,96.00
2018-01-16T07:08:08.661Z,112.00
2018-01-16T07:09:08.692Z,128.00
2018-01-16T07:10:08.724Z,148.00
2018-01-16T07:11:08.754Z,164.00
2018-01-16T07:12:08.785Z,180.00
2018-01-16T07:13:08.815Z,196.00
2018-01-16T07:14:08.855Z,216.00
2018-01-16T07:15:08.876Z,236.00
2018-01-16T07:16:08.912Z,252.00
2018-01-16T07:17:08.953Z,272.00
2018-01-16T07:18:08.970Z,292.00
2018-01-16T07:19:09.000Z,312.00
2018-01-16T07:20:09.029Z,332.00
2018-01-16T07:21:09.155Z,352.00
2018-01-16T07:22:09.092Z,380.00
2018-01-16T07:23:09.121Z,396.00
2018-01-16T07:24:09.149Z,420.00
2018-01-16T07:25:09.180Z,436.00
2018-01-16T07:26:09.214Z,452.00
2018-01-16T07:27:09.242Z,472.00
2018-01-16T07:28:09.271Z,488.00
2018-01-16T07:29:09.303Z,508.00
2018-01-16T07:30:09.334Z,528.00
2018-01-16T07:31:09.369Z,540.00
2018-01-16T07:32:09.395Z,560.00
2018-01-16T07:33:09.424Z,580.00
2018-01-16T07:34:09.460Z,604.00
2018-01-16T07:35:09.484Z,648.00
2018-01-16T07:36:09.515Z,676.00
2018-01-16T07:37:09.545Z,684.00
2018-01-16T07:38:09.646Z,712.00
2018-01-16T07:39:09.608Z,744.00
2018-01-16T07:40:09.638Z,760.00
2018-01-16T07:41:09.669Z,792.00
2018-01-16T07:42:09.702Z,824.00
2018-01-16T07:43:09.733Z,864.00
2018-01-16T07:44:09.766Z,916.00
2018-01-16T07:45:09.908Z,924.00
2018-01-16T07:46:09.822Z,916.00
2018-01-16T07:47:09.853Z,940.00
2018-01-16T07:48:09.884Z,976.00
2018-01-16T07:49:09.913Z,996.00
2018-01-16T07:50:09.944Z,1024.00
2018-01-16T07:51:09.974Z,1076.00
2018-01-16T07:52:10.004Z,1136.00
2018-01-16T07:53:10.034Z,1184.00
2018-01-16T07:54:10.063Z,1240.00
2018-01-16T07:56:10.124Z,1384.00
2018-01-16T07:57:10.153Z,1464.00
2018-01-16T07:58:10.185Z,1584.00
2018-01-16T07:59:10.230Z,1736.00
2018-01-16T08:00:10.246Z,1872.00
2018-01-16T08:01:10.275Z,1920.00
2018-01-16T08:02:10.329Z,1964.00
2018-01-16T08:03:10.335Z,2056.00
2018-01-16T08:04:10.365Z,2292.00
2018-01-16T08:05:10.394Z,2452.00
2018-01-16T08:06:10.424Z,2556.00
2018-01-16T08:07:10.455Z,2476.00
2018-01-16T08:08:10.486Z,2376.00
2018-01-16T08:09:10.515Z,2408.00
2018-01-16T08:10:10.549Z,2456.00
2018-01-16T08:11:10.579Z,2328.00
2018-01-16T08:12:10.609Z,2232.00
2018-01-16T08:13:10.638Z,2256.00
2018-01-16T08:14:10.672Z,2260.00
2018-01-16T08:15:10.700Z,2176.00
2018-01-16T08:16:10.731Z,2204.00
2018-01-16T08:17:10.759Z,2264.00
2018-01-16T08:18:10.792Z,2136.00
2018-01-16T08:19:10.823Z,2152.00
2018-01-16T08:20:10.859Z,2232.00
2018-01-16T08:21:10.888Z,2352.00
2018-01-16T08:22:10.921Z,2532.00
2018-01-16T08:23:10.948Z,2576.00
2018-01-16T08:24:10.976Z,2492.00
2018-01-16T08:25:11.011Z,2448.00
2018-01-16T08:26:11.038Z,2644.00
2018-01-16T08:27:11.067Z,2736.00
2018-01-16T08:28:11.097Z,2708.00
2018-01-16T08:29:11.128Z,2672.00
2018-01-16T08:30:11.158Z,2664.00
2018-01-16T08:31:11.194Z,2628.00
2018-01-16T08:32:11.220Z,2572.00
2018-01-16T08:33:11.251Z,2532.00
2018-01-16T08:34:11.284Z,2504.00
2018-01-16T08:35:11.312Z,2532.00
2018-01-16T08:36:11.341Z,2580.00
2018-01-16T08:38:11.488Z,2516.00
2018-01-16T08:39:11.433Z,2636.00
2018-01-16T08:40:11.469Z,2700.00
2018-01-16T08:41:11.499Z,2728.00
2018-01-16T08:42:11.529Z,2864.00
2018-01-16T08:43:11.571Z,3148.00
2018-01-16T08:44:11.590Z,3524.00
2018-01-16T08:45:11.683Z,3608.00
2018-01-16T08:46:11.654Z,3604.00
2018-01-16T08:47:11.683Z,3580.00
2018-01-16T08:48:11.712Z,3524.00
2018-01-16T08:49:11.743Z,3380.00
2018-01-16T08:50:11.776Z,3412.00
2018-01-16T08:51:11.805Z,3348.00
2018-01-16T08:52:11.836Z,3336.00
2018-01-16T08:53:11.871Z,3192.00
2018-01-16T08:54:11.901Z,2984.00
2018-01-16T08:55:11.943Z,2744.00
2018-01-16T08:56:11.961Z,2396.00
2018-01-16T08:57:11.991Z,2012.00
2018-01-16T08:58:12.021Z,1872.00
2018-01-16T08:59:12.055Z,2084.00
2018-01-16T09:00:12.099Z,2140.00
2018-01-16T09:01:12.119Z,2148.00
2018-01-16T09:02:12.147Z,2124.00
2018-01-16T09:03:12.178Z,2060.00
2018-01-16T09:04:12.279Z,2092.00
2018-01-16T09:05:12.248Z,2144.00
2018-01-16T09:06:12.272Z,2268.00
2018-01-16T09:07:12.322Z,2396.00
2018-01-16T09:08:12.333Z,2660.00
2018-01-16T09:09:12.365Z,3208.00
2018-01-16T09:10:12.397Z,3764.00
2018-01-16T09:11:12.427Z,4124.00
2018-01-16T09:12:12.458Z,4336.00
2018-01-16T09:13:12.488Z,4532.00
2018-01-16T09:14:12.523Z,4332.00
2018-01-16T09:15:12.553Z,4048.00
2018-01-16T09:16:12.583Z,4056.00
2018-01-16T09:17:12.613Z,4332.00
2018-01-16T09:18:12.648Z,5004.00
2018-01-16T09:19:12.686Z,6180.00
2018-01-16T09:20:12.737Z,7036.00
2018-01-16T09:21:12.790Z,7572.00
2018-01-16T09:22:12.774Z,8140.00
2018-01-16T09:23:12.804Z,8432.00
2018-01-16T09:24:12.835Z,8216.00
2018-01-16T09:25:12.865Z,8336.00
2018-01-16T09:26:12.897Z,9496.00
2018-01-16T09:27:12.930Z,10480.00
2018-01-16T09:28:13.043Z,10448.00
2018-01-16T09:29:12.990Z,7848.00
2018-01-16T09:30:13.024Z,5236.00
2018-01-16T09:31:13.113Z,3872.00
2018-01-16T09:32:13.093Z,3020.00
2018-01-16T09:33:13.126Z,2508.00
2018-01-16T09:34:13.154Z,3572.00
2018-01-16T09:35:13.185Z,4216.00
2018-01-16T09:36:13.214Z,5248.00
2018-01-16T09:37:13.250Z,5540.00
2018-01-16T09:38:13.277Z,6236.00
2018-01-16T09:39:13.311Z,6980.00
2018-01-16T09:40:13.342Z,8120.00
2018-01-16T09:42:13.406Z,10884.00
2018-01-16T09:43:13.439Z,10380.00
2018-01-16T09:44:13.471Z,13780.00
2018-01-16T09:45:13.571Z,13636.00
2018-01-16T09:46:13.537Z,12284.00
2018-01-16T09:47:13.567Z,11000.00
2018-01-16T09:48:13.597Z,8096.00
2018-01-16T09:49:13.640Z,7524.00
2018-01-16T09:50:13.661Z,6160.00
2018-01-16T09:52:13.839Z,6644.00
2018-01-16T09:53:13.760Z,6004.00
2018-01-16T09:54:13.802Z,7136.00
2018-01-16T09:55:13.830Z,7888.00
2018-01-16T09:56:13.858Z,10236.00
2018-01-16T09:57:13.890Z,9280.00
2018-01-16T09:58:13.982Z,6972.00
2018-01-16T09:59:13.958Z,5208.00
2018-01-16T10:00:13.988Z,4284.00
2018-01-16T10:01:14.024Z,3672.00
2018-01-16T10:02:14.058Z,3732.00
2018-01-16T10:03:14.089Z,4684.00
2018-01-16T10:04:14.188Z,5488.00
2018-01-16T10:05:14.152Z,6248.00
2018-01-16T10:06:14.185Z,7180.00
2018-01-16T10:07:14.219Z,8820.00
2018-01-16T10:08:14.250Z,9600.00
2018-01-16T10:09:14.282Z,8908.00
2018-01-16T10:10:14.315Z,6432.00
2018-01-16T10:11:14.671Z,4680.00
2018-01-16T10:12:14.379Z,4092.00
2018-01-16T10:13:14.412Z,3860.00
2018-01-16T10:14:14.448Z,3952.00
2018-01-16T10:15:14.479Z,4320.00
2018-01-16T10:16:14.510Z,4388.00
2018-01-16T10:17:14.542Z,4884.00
2018-01-16T10:18:14.574Z,5204.00
2018-01-16T10:19:14.610Z,5912.00
2018-01-16T10:20:14.641Z,6340.00
2018-01-16T10:21:14.674Z,6608.00
2018-01-16T10:22:14.703Z,7120.00
2018-01-16T10:23:14.741Z,8380.00
2018-01-16T10:24:14.776Z,9336.00
2018-01-16T10:25:14.801Z,7996.00
2018-01-16T10:26:14.836Z,6052.00
2018-01-16T10:27:14.866Z,5784.00
2018-01-16T10:28:15.231Z,5316.00
2018-01-16T10:29:14.931Z,4936.00
2018-01-16T10:30:14.963Z,5412.00
2018-01-16T10:31:14.996Z,6224.00
2018-01-16T10:32:15.032Z,6064.00
2018-01-16T10:33:15.062Z,5096.00
2018-01-16T10:34:15.096Z,5644.00
2018-01-16T10:35:15.125Z,5860.00
2018-01-16T10:36:15.157Z,5124.00
2018-01-16T10:37:15.192Z,5020.00
2018-01-16T10:38:15.221Z,5020.00
2018-01-16T10:39:15.258Z,6028.00
2018-01-16T10:40:15.288Z,6508.00
2018-01-16T10:41:15.365Z,6516.00
2018-01-16T10:42:15.365Z,6896.00
2018-01-16T10:43:15.386Z,7624.00
2018-01-16T10:44:15.418Z,8452.00
2018-01-16T10:45:15.453Z,9044.00
2018-01-16T10:46:15.485Z,9184.00
2018-01-16T10:47:15.543Z,8160.00
2018-01-16T10:48:15.549Z,7060.00
2018-01-16T10:49:15.625Z,5660.00
2018-01-16T10:50:15.615Z,4188.00
2018-01-16T10:51:15.648Z,3252.00
2018-01-16T10:52:15.677Z,3188.00
2018-01-16T10:53:15.711Z,4256.00
2018-01-16T10:54:15.744Z,6484.00
2018-01-16T10:55:15.790Z,4784.00
2018-01-16T10:56:15.832Z,4556.00
2018-01-16T10:57:15.846Z,4740.00
2018-01-16T10:58:15.874Z,5012.00
2018-01-16T10:59:15.909Z,5452.00
2018-01-16T11:00:15.937Z,5416.00
2018-01-16T11:01:15.971Z,5464.00
2018-01-16T11:02:16.005Z,4508.00
2018-01-16T11:03:16.047Z,3344.00
2018-01-16T11:04:16.075Z,2836.00
2018-01-16T11:05:16.100Z,2764.00
2018-01-16T11:06:16.137Z,2788.00
2018-01-16T11:07:16.171Z,2636.00
2018-01-16T11:08:16.199Z,2516.00
2018-01-16T11:09:16.246Z,2980.00
2018-01-16T11:10:16.266Z,3436.00
2018-01-16T11:11:16.326Z,3140.00
2018-01-16T11:12:16.341Z,3280.00
2018-01-16T11:13:16.362Z,3032.00
2018-01-16T11:14:16.398Z,2636.00
2018-01-16T11:15:16.426Z,2160.00
2018-01-16T11:16:16.465Z,2256.00
2018-01-16T11:17:16.492Z,2628.00
2018-01-16T11:18:16.634Z,2944.00
2018-01-16T11:19:16.559Z,3384.00
2018-01-16T11:20:16.595Z,5068.00
2018-01-16T11:21:16.622Z,5464.00
2018-01-16T11:22:16.653Z,7664.00
2018-01-16T11:23:16.687Z,8488.00
2018-01-16T11:24:16.720Z,8136.00
2018-01-16T11:25:16.815Z,6172.00
2018-01-16T11:26:16.786Z,4932.00
2018-01-16T11:27:16.818Z,3892.00
2018-01-16T11:28:16.886Z,2908.00
2018-01-16T11:29:16.880Z,2556.00
2018-01-16T11:30:16.914Z,2304.00
2018-01-16T11:31:16.950Z,1988.00
2018-01-16T11:32:16.979Z,1556.00
2018-01-16T11:33:17.015Z,1032.00
2018-01-16T11:34:17.045Z,780.00
2018-01-16T11:35:17.080Z,808.00
2018-01-16T11:36:17.108Z,944.00
2018-01-16T11:37:17.472Z,1080.00
2018-01-16T11:38:17.224Z,1140.00
2018-01-16T11:39:17.213Z,1212.00
2018-01-16T11:40:17.242Z,1128.00
2018-01-16T11:41:17.270Z,1164.00
2018-01-16T11:42:17.302Z,1248.00
2018-01-16T11:43:17.344Z,1928.00
2018-01-16T11:44:17.364Z,2864.00
2018-01-16T11:45:17.400Z,3184.00
2018-01-16T11:46:17.431Z,3240.00
2018-01-16T11:47:17.464Z,3500.00
2018-01-16T11:48:17.495Z,3804.00
2018-01-16T11:49:17.531Z,3920.00
2018-01-16T11:50:17.614Z,3764.00
2018-01-16T11:51:17.591Z,3396.00
2018-01-16T11:52:17.623Z,3048.00
2018-01-16T11:53:17.655Z,3084.00
2018-01-16T11:54:17.692Z,3020.00
2018-01-16T11:55:17.743Z,2824.00
2018-01-16T11:56:17.753Z,2608.00
2018-01-16T11:57:17.783Z,2628.00
2018-01-16T11:58:17.812Z,2708.00
2018-01-16T11:59:17.842Z,2816.00
2018-01-16T12:00:17.873Z,2956.00
2018-01-16T12:01:17.997Z,3060.00
2018-01-16T12:02:17.937Z,3284.00
2018-01-16T12:03:17.975Z,3460.00
2018-01-16T12:04:18.008Z,3576.00
2018-01-16T12:05:18.038Z,3892.00
2018-01-16T12:06:18.064Z,4520.00
2018-01-16T12:07:18.096Z,5260.00
2018-01-16T12:08:18.123Z,5872.00
2018-01-16T12:09:18.177Z,6120.00
2018-01-16T12:10:18.185Z,6228.00
2018-01-16T12:11:18.218Z,6296.00
2018-01-16T12:12:18.254Z,7056.00
2018-01-16T12:13:18.279Z,7564.00
2018-01-16T12:14:18.313Z,7748.00
2018-01-16T12:15:18.347Z,7360.00
2018-01-16T12:16:18.376Z,6564.00
2018-01-16T12:17:18.404Z,5348.00
2018-01-16T12:18:18.435Z,5744.00
2018-01-16T12:19:18.470Z,5088.00
2018-01-16T12:20:18.514Z,3748.00
2018-01-16T12:21:18.529Z,2256.00
2018-01-16T12:22:18.565Z,1520.00
2018-01-16T12:23:18.614Z,1252.00
2018-01-16T12:24:18.625Z,984.00
2018-01-16T12:25:18.719Z,840.00
2018-01-16T12:26:18.739Z,968.00
2018-01-16T12:27:18.717Z,1080.00
2018-01-16T12:28:18.748Z,1240.00
2018-01-16T12:29:18.779Z,1248.00
2018-01-16T12:30:18.810Z,1168.00
2018-01-16T12:31:18.840Z,1084.00
2018-01-16T12:32:18.884Z,1036.00
2018-01-16T12:33:18.906Z,936.00
2018-01-16T12:34:18.936Z,924.00
2018-01-16T12:35:19.020Z,1024.00
2018-01-16T12:36:18.996Z,920.00
2018-01-16T12:37:19.066Z,844.00
2018-01-16T12:38:19.054Z,952.00
2018-01-16T12:39:19.089Z,1032.00
2018-01-16T12:40:19.112Z,1036.00
2018-01-16T12:41:19.142Z,868.00
2018-01-16T12:42:19.171Z,868.00
2018-01-16T12:43:19.201Z,932.00
2018-01-16T12:44:19.561Z,1260.00
2018-01-16T12:45:19.263Z,1496.00
2018-01-16T12:46:19.308Z,1668.00
2018-01-16T12:47:19.319Z,2036.00
2018-01-16T12:48:19.350Z,2352.00
2018-01-16T12:49:19.377Z,2600.00
2018-01-16T12:50:19.408Z,2892.00